Aviation Digital Data Service (ADDS)

Output produced by METARs form (1950 UTC 23 November 2014)
found at http://aviationweather.gov/adds/metars/
 
KMPV 231924Z 2319/2418 21008KT P6SM BKN045 
     FM240200 17006KT P6SM OVC035 
     FM241000 16010KT 5SM -RA OVC018 
     FM241300 17010KT 2SM RA BR OVC007 
     FM241700 17006KT 4SM BR OVC015